Time;durP1;ratioP1;P1;durP2;ratioP2;P2;SDS_P1;SDS_P2;PMS_P1;PMS_P2;Temp;Humidity;BMP_temperature;BMP_pressure;BME280_temperature;BME280_humidity;BME280_pressure;Samples;Min_cycle;Max_cycle;Signal;HPM_P1;HPM_P2
2021/12/21 00:00:11;;;;;;;16.83;7.03;;;;;;;-3.90;100.00;99555.78;4842049;29;20090;-65
2021/12/21 00:02:37;;;;;;;;;;;;;;;-3.96;100.00;99557.03;4842351;29;20034;-65
2021/12/21 00:05:04;;;;;;;13.13;6.47;;;;;;;-3.93;100.00;99551.63;4840584;29;19924;-65
2021/12/21 00:07:29;;;;;;;18.05;7.35;;;;;;;-4.03;100.00;99553.09;4841735;29;20048;-65
2021/12/21 00:09:55;;;;;;;12.90;6.53;;;;;;;-4.03;100.00;99545.25;4841814;29;20033;-64
2021/12/21 00:12:24;;;;;;;15.67;6.90;;;;;;;-4.03;100.00;99543.50;4841880;29;20430;-65
2021/12/21 00:15:00;;;;;;;17.00;7.78;;;;;;;-4.06;100.00;99537.66;4841530;29;20026;-64
2021/12/21 00:17:51;;;;;;;15.10;7.60;;;;;;;-4.14;100.00;99535.47;4841580;29;20117;-65
2021/12/21 00:25:20;;;;;;;14.77;6.60;;;;;;;-4.11;100.00;99542.28;4825916;29;20038;-66
2021/12/21 00:27:48;;;;;;;15.63;7.07;;;;;;;-4.14;100.00;99543.31;4841552;29;20530;-65
2021/12/21 00:30:14;;;;;;;18.02;7.20;;;;;;;-4.18;100.00;99547.06;4841705;29;20085;-65
2021/12/21 00:32:40;;;;;;;15.18;7.10;;;;;;;-4.24;100.00;99550.03;4825332;29;20040;-65
2021/12/21 00:35:06;;;;;;;16.15;7.95;;;;;;;-4.35;100.00;99543.78;4809819;29;20555;-65
2021/12/21 00:37:32;;;;;;;14.13;7.00;;;;;;;-4.36;100.00;99542.94;4824818;29;20060;-65
2021/12/21 00:39:58;;;;;;;16.48;6.70;;;;;;;-4.32;100.00;99544.44;4841279;29;20034;-64
2021/12/21 00:42:24;;;;;;;14.77;6.77;;;;;;;-4.43;100.00;99541.66;4825296;29;20048;-65
2021/12/21 00:44:49;;;;;;;14.40;6.63;;;;;;;-4.38;100.00;99543.03;4841230;29;20026;-64
2021/12/21 00:47:16;;;;;;;15.40;7.50;;;;;;;-4.36;100.00;99545.56;4841166;29;20030;-65
2021/12/21 00:49:47;;;;;;;14.38;7.03;;;;;;;-4.33;100.00;99541.94;4841171;29;20449;-65
2021/12/21 00:52:14;;;;;;;15.23;7.38;;;;;;;-4.36;100.00;99540.34;4841231;29;20038;-65
2021/12/21 00:54:40;;;;;;;17.83;7.13;;;;;;;-4.34;100.00;99543.69;4824981;29;20056;-65
2021/12/21 00:57:08;;;;;;;17.13;6.95;;;;;;;-4.33;100.00;99537.56;4841102;29;20038;-65
2021/12/21 00:59:34;;;;;;;17.13;7.75;;;;;;;-4.36;100.00;99537.72;4824903;29;20034;-65
2021/12/21 01:02:00;;;;;;;13.97;7.27;;;;;;;-4.39;100.00;99535.31;4809567;29;20514;-65
2021/12/21 01:04:35;;;;;;;16.27;7.40;;;;;;;-4.35;100.00;99536.81;4840899;29;20034;-65
2021/12/21 01:07:09;;;;;;;14.60;7.28;;;;;;;-4.33;100.00;99523.66;4840897;29;20037;-65
2021/12/21 01:12:17;;;;;;;15.88;7.10;;;;;;;-4.45;100.00;99544.34;4823058;29;20074;-65
2021/12/21 01:17:30;;;;;;;17.47;7.30;;;;;;;-4.49;100.00;99545.44;4821755;29;20034;-65
2021/12/21 01:20:03;;;;;;;16.65;7.40;;;;;;;-4.38;100.00;99540.44;4821870;29;20030;-65
2021/12/21 01:25:35;;;;;;;15.65;7.05;;;;;;;-4.28;100.00;99532.06;4822595;29;20041;-65
2021/12/21 01:30:50;;;;;;;17.50;8.30;;;;;;;-4.06;100.00;99529.81;4822863;29;20037;-65
2021/12/21 01:35:53;;;;;;;15.10;7.05;;;;;;;-4.09;100.00;99530.84;4822869;29;20098;-65
2021/12/21 01:38:40;;;;;;;18.23;7.05;;;;;;;-4.31;100.00;99530.47;4822633;29;20034;-65
2021/12/21 01:43:45;;;;;;;14.40;7.13;;;;;;;-4.52;100.00;99516.13;4822919;29;20085;-64
2021/12/21 01:51:38;;;;;;;;;;;;;;;-4.62;100.00;99521.06;4826036;29;20057;-65
2021/12/21 01:54:04;;;;;;;16.80;6.63;;;;;;;-4.58;100.00;99509.50;4824913;29;20394;-64
2021/12/21 01:56:30;;;;;;;14.43;7.38;;;;;;;-4.58;100.00;99513.88;4825824;29;20065;-64
2021/12/21 01:58:56;;;;;;;15.37;7.07;;;;;;;-4.59;100.00;99520.03;4825875;29;20074;-64
2021/12/21 02:01:24;;;;;;;14.43;7.00;;;;;;;-4.63;100.00;99518.53;4825718;29;20042;-65
2021/12/21 02:03:50;;;;;;;15.18;7.18;;;;;;;-4.74;100.00;99511.38;4824599;29;20034;-65
2021/12/21 02:06:26;;;;;;;14.70;7.18;;;;;;;-4.74;100.00;99513.97;4824419;29;20049;-64
2021/12/21 02:08:53;;;;;;;13.95;6.90;;;;;;;-4.81;100.00;99510.03;4836456;29;20500;-64
2021/12/21 02:11:20;;;;;;;15.27;7.63;;;;;;;-4.83;100.00;99509.28;4843932;29;20753;-64
2021/12/21 02:13:48;;;;;;;14.52;6.53;;;;;;;-4.81;100.00;99513.47;4843922;29;20424;-65
2021/12/21 02:16:22;;;;;;;15.70;7.32;;;;;;;-4.61;100.00;99514.91;4843715;29;20026;-64
2021/12/21 02:19:03;;;;;;;;;;;;;;;-4.62;100.00;99509.78;4828628;29;20602;-65
2021/12/21 02:21:39;;;;;;;14.95;6.78;;;;;;;-4.71;100.00;99518.97;4829469;29;20367;-65
2021/12/21 02:24:10;;;;;;;14.75;7.13;;;;;;;-4.73;100.00;99505.22;4828349;29;20030;-65
2021/12/21 02:29:17;;;;;;;13.53;6.53;;;;;;;-4.60;100.00;99511.34;4843589;29;20061;-64
2021/12/21 02:31:47;;;;;;;12.63;6.28;;;;;;;-4.63;100.00;99502.91;4826917;29;20061;-64
2021/12/21 02:34:13;;;;;;;15.38;6.65;;;;;;;-4.75;100.00;99504.47;4843585;29;20030;-64
2021/12/21 02:36:41;;;;;;;15.05;6.55;;;;;;;-4.85;100.00;99501.59;4826799;29;20103;-64
2021/12/21 02:39:07;;;;;;;12.18;6.07;;;;;;;-4.92;100.00;99499.41;4826854;29;20034;-64
2021/12/21 02:41:34;;;;;;;16.80;7.20;;;;;;;-4.94;100.00;99502.09;4826855;29;20033;-64
2021/12/21 02:44:00;;;;;;;14.25;6.40;;;;;;;-4.85;100.00;99498.13;4843301;29;20056;-64
2021/12/21 02:46:26;;;;;;;14.95;7.03;;;;;;;-4.91;100.00;99503.69;4826903;29;20105;-64
2021/12/21 02:48:52;;;;;;;15.27;7.03;;;;;;;-4.91;100.00;99506.28;4826862;29;20365;-64
2021/12/21 02:51:17;;;;;;;17.60;7.07;;;;;;;-4.90;100.00;99498.41;4843259;29;20125;-64
2021/12/21 02:53:44;;;;;;;16.33;6.93;;;;;;;-4.86;100.00;99494.69;4826884;29;20175;-64
2021/12/21 02:56:12;;;;;;;12.77;6.85;;;;;;;-4.82;100.00;99493.56;4843171;29;20046;-64
2021/12/21 02:58:37;;;;;;;15.15;7.55;;;;;;;-4.75;100.00;99491.44;4843198;29;20041;-64
2021/12/21 03:01:05;;;;;;;14.80;7.27;;;;;;;-4.57;100.00;99497.31;4842977;29;20044;-64
2021/12/21 03:03:30;;;;;;;12.63;6.68;;;;;;;-4.53;100.00;99497.03;4843564;29;20034;-65
2021/12/21 03:05:57;;;;;;;13.37;6.37;;;;;;;-4.48;100.00;99491.53;4842903;29;20037;-65
2021/12/21 03:08:36;;;;;;;16.20;7.43;;;;;;;-4.62;100.00;99489.78;4842921;29;20184;-65
2021/12/21 03:16:18;;;;;;;12.40;6.45;;;;;;;-4.54;100.00;99504.94;4842969;29;20046;-65
2021/12/21 03:18:43;;;;;;;14.93;6.67;;;;;;;-4.60;100.00;99500.94;4842938;29;20026;-65
2021/12/21 03:21:10;;;;;;;11.43;6.13;;;;;;;-4.66;100.00;99508.28;4842779;29;20104;-65
2021/12/21 03:23:36;;;;;;;14.63;6.40;;;;;;;-4.71;100.00;99507.72;4842851;29;20038;-64
2021/12/21 03:26:02;;;;;;;12.27;6.38;;;;;;;-4.65;100.00;99509.97;4842327;29;20404;-64
2021/12/21 03:28:27;;;;;;;12.87;5.87;;;;;;;-4.84;100.00;99511.03;4842616;29;20041;-64
2021/12/21 03:30:53;;;;;;;12.77;6.33;;;;;;;-4.81;100.00;99512.63;4842682;29;20065;-64
2021/12/21 03:33:19;;;;;;;14.97;6.83;;;;;;;-4.76;100.00;99513.22;4842583;29;20038;-64
2021/12/21 03:35:44;;;;;;;31.13;14.17;;;;;;;-4.93;100.00;99510.75;4842524;29;20030;-65
2021/12/21 03:38:10;;;;;;;50.70;24.23;;;;;;;-5.01;100.00;99508.63;4842432;29;20034;-64
2021/12/21 03:40:36;;;;;;;50.90;24.42;;;;;;;-4.98;100.00;99512.81;4826067;29;20025;-64
2021/12/21 03:43:02;;;;;;;37.07;18.23;;;;;;;-4.91;100.00;99511.50;4842332;29;20046;-64
2021/12/21 03:45:32;;;;;;;23.50;12.55;;;;;;;-4.94;100.00;99507.31;4842170;29;20043;-65
2021/12/21 03:47:58;;;;;;;19.83;10.30;;;;;;;-4.95;100.00;99508.25;4842231;29;20065;-65
2021/12/21 03:50:23;;;;;;;14.27;7.83;;;;;;;-4.92;100.00;99505.47;4842222;29;20061;-64
2021/12/21 03:52:49;;;;;;;14.97;7.70;;;;;;;-4.80;100.00;99507.34;4825923;29;20534;-64
2021/12/21 03:55:14;;;;;;;15.00;7.50;;;;;;;-4.77;100.00;99506.31;4842026;29;20029;-64
2021/12/21 03:57:41;;;;;;;14.27;6.80;;;;;;;-4.91;100.00;99508.91;4842230;29;20480;-64
2021/12/21 04:00:10;;;;;;;12.57;7.20;;;;;;;-4.96;100.00;99508.34;4842103;29;20442;-64
2021/12/21 04:02:36;;;;;;;13.07;7.03;;;;;;;-4.96;100.00;99510.97;4825619;29;20090;-64
2021/12/21 04:05:01;;;;;;;11.53;6.43;;;;;;;-5.00;100.00;99517.28;4841812;29;20038;-64
2021/12/21 04:07:28;;;;;;;15.13;6.27;;;;;;;-5.03;100.00;99510.47;4841703;29;20525;-65
2021/12/21 04:09:54;;;;;;;13.73;6.75;;;;;;;-4.91;100.00;99517.56;4842109;29;20539;-65
2021/12/21 04:12:20;;;;;;;13.38;6.03;;;;;;;-5.00;100.00;99519.88;4841391;29;20407;-64
2021/12/21 04:14:46;;;;;;;13.37;6.30;;;;;;;-4.94;100.00;99512.53;4825488;29;20022;-64
2021/12/21 04:17:18;;;;;;;12.02;6.05;;;;;;;-4.89;100.00;99522.69;4841447;29;20044;-64
2021/12/21 04:19:43;;;;;;;11.85;5.82;;;;;;;-4.91;100.00;99525.38;4841894;29;20057;-64
2021/12/21 04:22:09;;;;;;;11.77;5.70;;;;;;;-5.08;100.00;99522.09;4841864;29;20053;-65
2021/12/21 04:24:35;;;;;;;13.00;6.45;;;;;;;-4.99;100.00;99522.41;4825501;29;20545;-65
2021/12/21 04:27:00;;;;;;;14.03;5.73;;;;;;;-4.96;100.00;99519.59;4841478;29;20034;-64
2021/12/21 04:29:26;;;;;;;15.30;6.60;;;;;;;-5.12;100.00;99521.44;4841721;29;20045;-65
2021/12/21 04:31:51;;;;;;;10.60;5.80;;;;;;;-4.91;100.00;99520.16;4841693;29;20026;-65
2021/12/21 04:34:17;;;;;;;12.70;5.70;;;;;;;-4.78;100.00;99521.13;4841547;29;20038;-65
2021/12/21 04:36:45;;;;;;;11.77;6.17;;;;;;;-4.67;100.00;99517.88;4841537;29;20061;-65
2021/12/21 04:39:22;;;;;;;12.68;6.03;;;;;;;-4.82;100.00;99519.63;4841512;29;20033;-65
2021/12/21 04:41:47;;;;;;;10.07;5.45;;;;;;;-4.96;100.00;99522.19;4841462;29;20098;-65
2021/12/21 04:44:13;;;;;;;11.60;6.13;;;;;;;-4.98;100.00;99523.22;4841358;29;20029;-65
2021/12/21 04:46:38;;;;;;;12.77;6.07;;;;;;;-4.95;100.00;99516.06;4841321;29;20029;-65
2021/12/21 04:49:04;;;;;;;12.57;5.63;;;;;;;-4.98;100.00;99513.66;4841304;29;20105;-64
2021/12/21 04:51:30;;;;;;;14.50;5.50;;;;;;;-5.07;100.00;99514.16;4809868;29;20037;-64
2021/12/21 04:53:56;;;;;;;13.70;5.67;;;;;;;-5.07;100.00;99524.59;4824987;29;20089;-64
2021/12/21 04:56:21;;;;;;;11.18;5.78;;;;;;;-5.18;100.00;99512.19;4841037;29;20463;-65
2021/12/21 04:58:47;;;;;;;13.03;5.37;;;;;;;-5.14;100.00;99516.31;4841184;29;20042;-64
2021/12/21 05:01:12;;;;;;;9.47;5.23;;;;;;;-5.20;100.00;99508.84;4840909;29;20113;-65
2021/12/21 05:03:38;;;;;;;12.13;5.80;;;;;;;-5.27;100.00;99514.47;4840976;29;20061;-64
2021/12/21 05:06:03;;;;;;;11.70;5.83;;;;;;;-5.22;100.00;99510.69;4840913;29;20025;-64
2021/12/21 05:08:37;;;;;;;16.47;6.30;;;;;;;-5.07;100.00;99511.56;4840734;29;20134;-64
2021/12/21 05:11:05;;;;;;;11.03;5.70;;;;;;;-5.08;100.00;99509.06;4840895;29;20034;-64
2021/12/21 05:13:33;;;;;;;11.25;5.70;;;;;;;-5.01;100.00;99502.56;4825032;29;20655;-64
2021/12/21 05:16:00;;;;;;;13.65;5.95;;;;;;;-4.99;100.00;99493.72;4840803;29;20532;-65
2021/12/21 05:18:26;;;;;;;11.85;6.00;;;;;;;-4.85;100.00;99496.38;4824536;29;20061;-64
2021/12/21 05:20:55;;;;;;;13.93;6.30;;;;;;;-4.71;100.00;99492.06;4840785;29;20556;-65
2021/12/21 05:23:22;;;;;;;12.00;5.75;;;;;;;-4.78;100.00;99491.63;4840720;29;20036;-65
2021/12/21 05:25:47;;;;;;;11.02;6.00;;;;;;;-4.75;100.00;99494.88;4823473;29;20046;-68
2021/12/21 05:28:14;;;;;;;13.37;5.83;;;;;;;-4.74;100.00;99493.13;4840612;29;20030;-67
2021/12/21 05:30:41;;;;;;;10.52;5.40;;;;;;;-4.82;100.00;99500.53;4840657;29;20038;-67
2021/12/21 05:33:06;;;;;;;12.32;6.18;;;;;;;-4.68;100.00;99504.94;4824298;29;20496;-64
2021/12/21 05:35:33;;;;;;;11.83;5.73;;;;;;;-4.67;100.00;99501.41;4809248;29;20056;-64
2021/12/21 05:38:03;;;;;;;13.55;5.70;;;;;;;-4.73;100.00;99507.00;4840500;29;20442;-64
2021/12/21 05:40:35;;;;;;;9.55;5.05;;;;;;;-4.71;100.00;99505.09;4840586;29;20492;-64
2021/12/21 05:43:01;;;;;;;10.20;4.97;;;;;;;-4.77;100.00;99504.56;4824991;29;20041;-64
2021/12/21 05:45:27;;;;;;;12.02;5.57;;;;;;;-4.74;100.00;99508.75;4840472;29;20042;-67
2021/12/21 05:47:53;;;;;;;12.45;5.50;;;;;;;-4.72;100.00;99514.69;4824076;29;20046;-67
2021/12/21 05:50:19;;;;;;;13.77;5.60;;;;;;;-4.72;100.00;99509.47;4840490;29;20488;-65
2021/12/21 05:52:47;;;;;;;11.60;5.18;;;;;;;-4.53;100.00;99512.69;4840402;29;20029;-65
2021/12/21 05:55:13;;;;;;;11.30;5.25;;;;;;;-4.57;100.00;99505.97;4840255;29;20114;-65
2021/12/21 05:57:38;;;;;;;11.10;5.38;;;;;;;-4.44;100.00;99506.06;4840378;29;20030;-65
2021/12/21 06:00:07;;;;;;;11.30;5.90;;;;;;;-4.30;100.00;99511.28;4824075;29;20037;-65
2021/12/21 06:02:33;;;;;;;11.48;5.28;;;;;;;-4.30;100.00;99510.44;4824062;29;20056;-65
2021/12/21 06:04:58;;;;;;;12.53;5.33;;;;;;;-4.28;100.00;99519.88;4840476;29;20034;-65
2021/12/21 06:07:24;;;;;;;11.67;5.27;;;;;;;-4.21;100.00;99509.88;4840310;29;20030;-65
2021/12/21 06:09:50;;;;;;;11.37;5.30;;;;;;;-4.29;100.00;99517.34;4840334;29;20416;-65
2021/12/21 06:12:56;;;;;;;10.68;5.43;;;;;;;-4.25;100.00;99510.97;4840311;29;20033;-65
2021/12/21 06:15:20;;;;;;;10.80;5.43;;;;;;;-3.93;100.00;99509.00;4837798;29;20038;-65
2021/12/21 06:26:08;;;;;;;11.25;5.10;;;;;;;-3.99;100.00;99512.00;4792934;29;20053;-65
2021/12/21 06:28:34;;;;;;;12.45;5.45;;;;;;;-4.16;100.00;99513.06;4817844;29;20058;-65
2021/12/21 06:31:00;;;;;;;10.57;5.40;;;;;;;-4.37;100.00;99502.13;4858497;29;20033;-66
2021/12/21 06:33:25;;;;;;;9.23;5.43;;;;;;;-4.51;100.00;99512.59;4858488;29;20045;-67
2021/12/21 06:35:51;;;;;;;11.03;5.57;;;;;;;-4.58;100.00;99517.31;4840668;29;20116;-67
2021/12/21 06:38:17;;;;;;;10.93;5.53;;;;;;;-4.78;100.00;99517.69;4857834;29;20917;-67
2021/12/21 06:40:43;;;;;;;11.77;5.20;;;;;;;-4.80;100.00;99515.16;4860617;29;20089;-67
2021/12/21 06:43:13;;;;;;;11.90;5.77;;;;;;;-4.98;100.00;99526.69;4844942;29;20061;-70
2021/12/21 06:51:14;;;;;;;15.65;6.55;;;;;;;-4.79;100.00;99519.44;4860670;29;20133;-66
2021/12/21 06:53:41;;;;;;;17.75;8.25;;;;;;;-4.78;100.00;99525.50;4859883;29;20085;-67
2021/12/21 06:56:07;;;;;;;18.45;8.80;;;;;;;-4.73;100.00;99533.06;4844742;29;20059;-65
2021/12/21 06:58:33;;;;;;;18.45;9.43;;;;;;;-4.72;100.00;99525.13;4844182;29;20101;-65
2021/12/21 07:00:59;;;;;;;18.43;9.57;;;;;;;-4.62;100.00;99530.66;4860955;29;20034;-65
2021/12/21 07:03:25;;;;;;;21.33;11.05;;;;;;;-4.69;100.00;99526.72;4861395;29;20424;-65
2021/12/21 07:05:52;;;;;;;20.52;10.55;;;;;;;-4.74;100.00;99524.41;4844826;29;20065;-66
2021/12/21 07:08:23;;;;;;;25.55;11.75;;;;;;;-4.78;100.00;99522.91;4844150;29;20566;-66
2021/12/21 07:11:11;;;;;;;24.55;10.43;;;;;;;-4.67;100.00;99520.50;4845397;29;20045;-65
2021/12/21 07:19:05;;;;;;;20.25;10.68;;;;;;;-4.45;100.00;99514.81;4843079;29;20050;-72
2021/12/21 07:21:30;;;;;;;23.10;10.57;;;;;;;-4.34;100.00;99511.56;4858510;29;20037;-64
2021/12/21 07:23:56;;;;;;;21.80;10.43;;;;;;;-4.30;100.00;99506.06;4842912;29;20495;-64
2021/12/21 07:26:22;;;;;;;19.90;9.97;;;;;;;-4.15;100.00;99509.47;4842527;29;20532;-62
2021/12/21 07:28:47;;;;;;;16.57;8.37;;;;;;;-4.24;100.00;99505.69;4842702;29;20041;-64
2021/12/21 07:31:13;;;;;;;15.47;7.80;;;;;;;-4.29;100.00;99506.91;4858087;29;20041;-63
2021/12/21 07:33:39;;;;;;;14.07;7.97;;;;;;;-4.28;100.00;99509.44;4841270;29;20037;-63
2021/12/21 07:36:05;;;;;;;17.30;7.95;;;;;;;-4.29;100.00;99504.31;4844206;29;20057;-62
2021/12/21 07:38:32;;;;;;;14.97;8.33;;;;;;;-4.45;100.00;99501.78;4844160;29;20065;-62
2021/12/21 07:40:59;;;;;;;18.45;7.97;;;;;;;-4.41;100.00;99508.50;4857655;29;20181;-62
2021/12/21 07:43:25;;;;;;;15.50;8.32;;;;;;;-4.44;100.00;99511.28;4853400;29;20057;-62
2021/12/21 07:45:51;;;;;;;16.95;8.05;;;;;;;-4.27;100.00;99502.44;4859482;29;20137;-62
2021/12/21 07:48:17;;;;;;;14.77;7.63;;;;;;;-4.40;100.00;99511.00;4850799;29;20108;-62
2021/12/21 07:50:45;;;;;;;15.43;7.28;;;;;;;-4.46;100.00;99513.97;4841824;29;20479;-62
2021/12/21 07:53:11;;;;;;;15.68;7.22;;;;;;;-4.44;100.00;99506.91;4851848;29;20870;-62
2021/12/21 07:55:36;;;;;;;15.20;7.43;;;;;;;-4.28;100.00;99514.66;4852207;29;20105;-63
2021/12/21 07:58:02;;;;;;;14.47;7.30;;;;;;;-4.26;100.00;99507.53;4852119;29;20038;-62
2021/12/21 08:00:28;;;;;;;15.63;7.67;;;;;;;-4.38;100.00;99508.28;4848213;29;20037;-62
2021/12/21 08:02:54;;;;;;;14.10;6.87;;;;;;;-4.47;100.00;99512.28;4860044;29;20033;-62
2021/12/21 08:05:20;;;;;;;18.15;8.85;;;;;;;-4.34;100.00;99514.16;4859782;29;20472;-61
2021/12/21 08:07:57;;;;;;;15.45;7.60;;;;;;;-3.84;100.00;99514.47;4859604;29;20106;-61
2021/12/21 08:10:41;;;;;;;14.07;7.30;;;;;;;-2.72;100.00;99510.63;4846155;29;20037;-64
2021/12/21 08:13:07;;;;;;;20.23;11.82;;;;;;;-1.47;100.00;99506.09;4847433;29;20037;-65
2021/12/21 08:15:32;;;;;;;17.00;10.27;;;;;;;-0.08;100.00;99509.50;4852825;29;20085;-65
2021/12/21 08:17:59;;;;;;;15.50;8.03;;;;;;;0.59;100.00;99508.53;4842807;29;20061;-65
2021/12/21 08:20:26;;;;;;;13.55;8.30;;;;;;;0.64;100.00;99504.59;4833869;29;20480;-65
2021/12/21 08:22:52;;;;;;;14.25;7.63;;;;;;;0.97;100.00;99511.53;4832279;29;20022;-65
2021/12/21 08:25:18;;;;;;;10.57;6.67;;;;;;;1.77;100.00;99517.00;4833527;29;20045;-65
2021/12/21 08:27:43;;;;;;;12.83;7.50;;;;;;;2.18;100.00;99510.81;4837817;29;20037;-64
2021/12/21 08:30:09;;;;;;;9.47;6.03;;;;;;;2.55;100.00;99520.72;4831508;29;20040;-64
2021/12/21 08:32:35;;;;;;;10.70;6.93;;;;;;;2.42;100.00;99517.53;4832819;29;20038;-64
2021/12/21 08:35:00;;;;;;;10.60;6.80;;;;;;;3.55;100.00;99508.91;4829469;29;21134;-64
2021/12/21 08:37:27;;;;;;;9.97;5.60;;;;;;;3.32;100.00;99509.38;4833980;29;20116;-64
2021/12/21 08:39:52;;;;;;;8.23;5.70;;;;;;;3.90;100.00;99510.91;4830317;29;20071;-65
2021/12/21 08:42:18;;;;;;;10.40;6.10;;;;;;;3.81;100.00;99503.81;4833799;29;20308;-65
2021/12/21 08:44:46;;;;;;;9.87;5.17;;;;;;;4.04;100.00;99514.03;4840955;29;20105;-65
2021/12/21 08:47:13;;;;;;;9.80;5.53;;;;;;;4.21;100.00;99513.25;4828477;29;20048;-66
2021/12/21 08:49:38;;;;;;;10.20;5.63;;;;;;;3.79;100.00;99512.88;4825336;29;20312;-66
2021/12/21 08:52:04;;;;;;;8.50;5.37;;;;;;;4.21;100.00;99508.78;4855162;29;20289;-66
2021/12/21 08:54:29;;;;;;;11.43;5.57;;;;;;;4.49;100.00;99514.94;4841293;29;20034;-66
2021/12/21 08:56:55;;;;;;;9.63;5.40;;;;;;;5.10;100.00;99509.72;4841115;29;20034;-67
2021/12/21 08:59:20;;;;;;;8.87;5.00;;;;;;;5.40;100.00;99510.31;4840695;29;20454;-66
2021/12/21 09:01:46;;;;;;;7.23;4.27;;;;;;;5.61;100.00;99499.34;4839951;29;20098;-67
2021/12/21 09:04:14;;;;;;;9.07;5.10;;;;;;;5.35;100.00;99504.63;4840838;29;20030;-66
2021/12/21 09:06:40;;;;;;;8.23;4.90;;;;;;;4.93;100.00;99501.78;4841006;29;20369;-66
2021/12/21 09:09:05;;;;;;;9.00;5.17;;;;;;;5.78;100.00;99493.97;4853322;29;20057;-66
2021/12/21 09:11:31;;;;;;;11.43;4.80;;;;;;;6.00;100.00;99494.47;4842796;29;20072;-66
2021/12/21 09:13:57;;;;;;;6.70;4.43;;;;;;;5.70;100.00;99501.88;4859239;29;20033;-68
2021/12/21 09:16:22;;;;;;;8.07;4.33;;;;;;;6.26;100.00;99494.38;4859106;29;20032;-67
2021/12/21 09:18:48;;;;;;;7.03;3.70;;;;;;;5.36;100.00;99495.69;4859297;29;20045;-68
2021/12/21 09:21:13;;;;;;;8.70;4.47;;;;;;;4.81;100.00;99497.72;4859207;29;20411;-67
2021/12/21 09:23:40;;;;;;;7.10;4.67;;;;;;;4.51;100.00;99497.06;4859181;29;20436;-68
2021/12/21 09:26:05;;;;;;;9.33;4.80;;;;;;;4.53;100.00;99502.22;4857005;29;20061;-65
2021/12/21 09:28:31;;;;;;;11.77;7.10;;;;;;;4.76;100.00;99502.59;4836786;29;20120;-67
2021/12/21 09:30:57;;;;;;;9.23;4.40;;;;;;;4.20;100.00;99499.19;4857590;29;20090;-66
2021/12/21 09:33:23;;;;;;;9.30;4.50;;;;;;;4.49;100.00;99499.03;4827147;29;20049;-66
2021/12/21 09:35:49;;;;;;;7.20;4.37;;;;;;;3.85;100.00;99493.78;4858063;29;20551;-66
2021/12/21 09:38:14;;;;;;;7.10;3.90;;;;;;;4.52;100.00;99487.31;4858736;29;20045;-66
2021/12/21 09:40:40;;;;;;;8.47;5.27;;;;;;;4.17;100.00;99490.72;4858960;29;21106;-65
2021/12/21 09:43:10;;;;;;;8.93;3.90;;;;;;;4.53;100.00;99491.63;4859079;29;20048;-66
2021/12/21 09:45:36;;;;;;;5.17;3.50;;;;;;;4.20;100.00;99485.13;4857284;29;20034;-66
2021/12/21 09:48:02;;;;;;;6.97;3.60;;;;;;;4.81;99.06;99469.41;4847476;29;20272;-66
2021/12/21 09:50:28;;;;;;;5.43;3.33;;;;;;;3.99;100.00;99473.00;4847739;29;20038;-65
2021/12/21 09:52:54;;;;;;;5.23;3.67;;;;;;;4.29;100.00;99471.03;4840402;29;20069;-66
2021/12/21 09:55:20;;;;;;;8.73;3.67;;;;;;;4.59;96.27;99475.16;4823998;29;20041;-66
2021/12/21 09:57:47;;;;;;;5.43;3.50;;;;;;;3.98;100.00;99475.78;4824282;29;20277;-66
2021/12/21 10:00:22;;;;;;;6.30;3.77;;;;;;;4.94;99.98;99479.63;4847853;29;20360;-66
2021/12/21 10:02:48;;;;;;;9.23;3.60;;;;;;;5.10;97.29;99469.97;4857211;29;20384;-66
2021/12/21 10:05:18;;;;;;;5.87;3.50;;;;;;;4.99;98.21;99466.75;4842270;29;20399;-66
2021/12/21 10:07:55;;;;;;;7.10;3.40;;;;;;;5.48;89.84;99465.28;4842106;29;20360;-66
2021/12/21 10:10:21;;;;;;;7.10;4.03;;;;;;;5.28;93.99;99459.38;4858642;29;20332;-66
2021/12/21 10:12:47;;;;;;;7.13;3.93;;;;;;;5.25;89.50;99464.13;4845724;29;20276;-66
2021/12/21 10:15:18;;;;;;;7.10;3.57;;;;;;;5.04;91.84;99453.88;4845382;29;20029;-66
2021/12/21 10:17:53;;;;;;;5.43;3.07;;;;;;;3.93;93.82;99456.88;4862195;29;20265;-68
2021/12/21 10:20:34;;;;;;;5.90;3.13;;;;;;;5.00;91.73;99455.16;4844956;29;20273;-66
2021/12/21 10:23:00;;;;;;;5.47;3.00;;;;;;;4.64;89.60;99459.63;4862175;29;20273;-65
2021/12/21 10:25:26;;;;;;;6.40;3.33;;;;;;;5.12;88.08;99455.75;4845431;29;20311;-66
2021/12/21 10:27:52;;;;;;;4.73;2.93;;;;;;;5.27;92.71;99454.22;4845491;29;20276;-65
2021/12/21 10:30:18;;;;;;;7.90;3.00;;;;;;;6.49;83.68;99435.25;4861697;29;20635;-67
2021/12/21 10:32:54;;;;;;;7.70;3.27;;;;;;;5.43;85.24;99439.25;4857920;29;20120;-66
2021/12/21 10:35:30;;;;;;;4.60;2.83;;;;;;;5.18;86.40;99432.16;4852382;29;20026;-66
2021/12/21 10:37:56;;;;;;;7.53;2.80;;;;;;;4.97;86.80;99418.38;4850926;29;20029;-66
2021/12/21 10:40:26;;;;;;;5.80;3.20;;;;;;;5.34;85.48;99424.28;4834897;29;20668;-66
2021/12/21 10:42:58;;;;;;;5.80;2.93;;;;;;;4.35;90.98;99417.53;4827022;29;20281;-66
2021/12/21 10:45:31;;;;;;;5.03;2.90;;;;;;;5.76;84.19;99415.59;4826682;29;20315;-64
2021/12/21 10:47:58;;;;;;;6.63;3.20;;;;;;;6.61;78.91;99417.16;4843195;29;20321;-66
2021/12/21 10:50:26;;;;;;;5.43;2.77;;;;;;;5.83;79.99;99413.94;4826567;29;20560;-67
2021/12/21 10:52:54;;;;;;;5.30;3.23;;;;;;;5.12;80.46;99413.38;4826683;29;20034;-67
2021/12/21 10:55:35;;;;;;;4.73;2.80;;;;;;;5.96;80.85;99405.59;4842790;29;20456;-66
2021/12/21 10:58:04;;;;;;;5.30;3.07;;;;;;;6.32;77.90;99411.50;4843022;29;20140;-67
2021/12/21 11:00:30;;;;;;;4.97;2.80;;;;;;;5.72;79.67;99403.63;4826353;29;20042;-67
2021/12/21 11:02:59;;;;;;;6.33;3.00;;;;;;;6.27;80.63;99393.38;4849897;29;20088;-68
2021/12/21 11:05:34;;;;;;;5.73;2.97;;;;;;;7.05;64.61;99387.63;4858701;29;20029;-68
2021/12/21 11:08:06;;;;;;;6.47;3.20;;;;;;;5.31;71.28;99379.56;4874830;29;20077;-67
2021/12/21 11:10:35;;;;;;;7.17;3.40;;;;;;;6.04;70.05;99376.41;4861345;29;20078;-71
2021/12/21 11:13:07;;;;;;;6.07;3.30;;;;;;;6.33;69.48;99379.47;4860274;29;20143;-71
2021/12/21 11:15:42;;;;;;;5.43;3.03;;;;;;;6.05;67.41;99370.94;4860023;29;20029;-67
2021/12/21 11:18:10;;;;;;;5.97;3.33;;;;;;;5.92;68.10;99365.28;4861340;29;20037;-66
2021/12/21 11:20:37;;;;;;;6.87;3.00;;;;;;;7.05;64.56;99364.53;4860043;29;20033;-65
2021/12/21 11:23:05;;;;;;;5.80;3.13;;;;;;;6.45;65.33;99358.75;4875478;29;20029;-63
2021/12/21 11:25:32;;;;;;;5.97;2.90;;;;;;;6.71;63.58;99355.94;4860915;29;20045;-64
2021/12/21 11:28:00;;;;;;;5.27;2.87;;;;;;;7.73;61.83;99357.88;4859664;29;20070;-65
2021/12/21 11:30:25;;;;;;;7.70;3.03;;;;;;;6.22;63.67;99355.91;4860967;29;20040;-67
2021/12/21 11:32:53;;;;;;;5.10;2.90;;;;;;;6.36;65.10;99343.81;4861012;29;20033;-68
2021/12/21 11:37:55;;;;;;;6.88;3.10;;;;;;;6.31;62.92;99343.47;4860107;29;20029;-67
2021/12/21 11:40:24;;;;;;;7.50;2.90;;;;;;;6.39;65.59;99341.66;4859616;29;20040;-69
2021/12/21 11:42:52;;;;;;;5.67;3.00;;;;;;;5.71;64.50;99347.13;4844217;29;20111;-68
2021/12/21 11:45:22;;;;;;;8.20;2.87;;;;;;;6.36;62.79;99346.44;4860543;29;20030;-69
2021/12/21 11:48:10;;;;;;;6.40;3.17;;;;;;;6.03;62.37;99346.41;4860676;29;20034;-69
2021/12/21 11:50:40;;;;;;;6.87;3.07;;;;;;;4.94;68.56;99340.09;4860581;29;20140;-69
2021/12/21 11:53:08;;;;;;;5.23;3.00;;;;;;;5.74;65.87;99341.50;4859586;29;20029;-69
2021/12/21 11:55:37;;;;;;;6.43;3.00;;;;;;;7.50;59.91;99326.69;4874720;29;20631;-68
2021/12/21 11:58:22;;;;;;;4.83;2.83;;;;;;;8.77;54.42;99328.91;4860527;29;20439;-67
2021/12/21 12:00:55;;;;;;;6.03;3.10;;;;;;;9.03;53.44;99318.69;4859519;29;20616;-67
2021/12/21 12:03:24;;;;;;;4.75;3.03;;;;;;;9.22;49.88;99328.00;4860331;29;20029;-70
2021/12/21 12:05:54;;;;;;;4.80;3.00;;;;;;;8.76;50.00;99331.78;4856650;29;20037;-70
2021/12/21 12:08:20;;;;;;;4.77;2.90;;;;;;;8.33;51.38;99326.94;4858516;29;20064;-66
2021/12/21 12:10:51;;;;;;;4.60;3.00;;;;;;;8.21;52.23;99322.16;4860270;29;20041;-67
2021/12/21 12:13:33;;;;;;;5.97;3.50;;;;;;;7.67;52.54;99318.66;4860164;29;20037;-67
2021/12/21 12:16:12;;;;;;;5.95;3.30;;;;;;;8.99;49.25;99317.41;4841521;29;20030;-67
2021/12/21 12:18:45;;;;;;;5.60;3.23;;;;;;;7.89;51.65;99324.03;4841677;29;20129;-69
2021/12/21 12:21:14;;;;;;;6.15;3.15;;;;;;;7.73;54.67;99308.16;4825403;29;20038;-69
2021/12/21 12:23:58;;;;;;;6.57;3.13;;;;;;;7.60;53.01;99321.19;4841820;29;20484;-69